Terminal Aerodrome Forecast
Issued by NWS

Home | Current Version | Previous Version | Text Only | Print | Product List | Glossary On
Versions: 1 2 3 4 5 6 7 8 9 10 11 12
000
FTUS45 KPSR 290520
TAFIPL
TAF
KIPL 290520Z 2906/3006 27008KT P6SM SKC
     FM291900 VRB05KT P6SM FEW100 SCT150 SCT250
      TEMPO 2921/3001 14005KT=

USA.gov is the U.S. government's official web portal to all federal, state and local government web resources and services.